Time;durP1;ratioP1;P1;durP2;ratioP2;P2;SDS_P1;SDS_P2;PMS_P1;PMS_P2;Temp;Humidity;BMP_temperature;BMP_pressure;BME280_temperature;BME280_humidity;BME280_pressure;Samples;Min_cycle;Max_cycle;Signal;HPM_P1;HPM_P2
2022/08/22 00:01:06;;;;;;;22.13;9.70;;;;;;;17.16;100.00;101249.16;5040933;28;20025;-80
2022/08/22 00:03:44;;;;;;;26.80;9.98;;;;;;;17.00;100.00;101242.38;5059092;28;20137;-79
2022/08/22 00:06:30;;;;;;;25.95;10.95;;;;;;;17.07;100.00;101254.59;5067363;28;20033;-78
2022/08/22 00:09:15;;;;;;;37.47;10.98;;;;;;;17.00;100.00;101245.16;5057067;28;20043;-80
2022/08/22 00:12:02;;;;;;;31.98;10.45;;;;;;;17.00;100.00;101253.44;5067878;28;20036;-82
2022/08/22 00:14:49;;;;;;;36.77;11.17;;;;;;;16.82;100.00;101249.72;5055192;28;20021;-80
2022/08/22 00:17:32;;;;;;;29.83;10.48;;;;;;;16.98;100.00;101261.03;5078065;28;20502;-82
2022/08/22 00:20:17;;;;;;;33.78;11.70;;;;;;;17.05;100.00;101261.28;5063224;28;20399;-80
2022/08/22 00:23:16;;;;;;;29.48;11.63;;;;;;;16.96;100.00;101256.69;5069209;28;20032;-80
2022/08/22 00:26:10;;;;;;;28.17;11.23;;;;;;;16.96;100.00;101246.50;5064674;28;20036;-81
2022/08/22 00:28:59;;;;;;;29.35;11.40;;;;;;;16.95;100.00;101254.94;5019137;28;20135;-81
2022/08/22 00:31:44;;;;;;;33.22;11.65;;;;;;;16.97;100.00;101262.09;5056127;28;20044;-80
2022/08/22 00:34:34;;;;;;;29.23;11.50;;;;;;;16.90;100.00;101264.59;5058010;28;20430;-82
2022/08/22 00:37:19;;;;;;;45.78;15.23;;;;;;;16.84;100.00;101253.22;5055089;28;20056;-80
2022/08/22 00:39:57;;;;;;;57.35;22.02;;;;;;;16.89;100.00;101256.44;5070052;28;20038;-80
2022/08/22 00:42:35;;;;;;;59.85;21.95;;;;;;;16.83;100.00;101249.59;5059066;28;20060;-80
2022/08/22 00:45:23;;;;;;;72.53;26.95;;;;;;;16.82;100.00;101255.25;5064450;28;20037;-80
2022/08/22 00:48:19;;;;;;;60.75;24.88;;;;;;;16.66;100.00;101251.25;5060036;28;20068;-80
2022/08/22 00:51:12;;;;;;;65.03;22.88;;;;;;;16.66;100.00;101254.03;5061497;28;20033;-79
2022/08/22 00:53:49;;;;;;;54.53;20.48;;;;;;;16.71;100.00;101257.22;5077501;28;20495;-81
2022/08/22 00:57:00;;;;;;;47.20;17.10;;;;;;;16.77;100.00;101258.47;5057457;28;20036;-81
2022/08/22 00:59:43;;;;;;;55.05;18.85;;;;;;;16.52;100.00;101257.28;5080633;28;20055;-81
2022/08/22 01:02:18;;;;;;;57.17;19.70;;;;;;;16.54;100.00;101261.66;5060748;28;20086;-81
2022/08/22 01:05:07;;;;;;;69.88;23.70;;;;;;;16.61;100.00;101259.16;5045830;28;20044;-81
2022/08/22 01:08:03;;;;;;;51.88;23.63;;;;;;;16.73;100.00;101265.34;5071677;28;20028;-80
2022/08/22 01:10:57;;;;;;;62.25;24.70;;;;;;;16.73;100.00;101259.81;5063986;28;20033;-81
2022/08/22 01:13:57;;;;;;;72.45;24.20;;;;;;;16.74;100.00;101264.31;5059828;28;20032;-81
2022/08/22 01:16:27;;;;;;;78.22;27.50;;;;;;;16.65;100.00;101266.09;5068135;28;20452;-81
2022/08/22 01:19:27;;;;;;;71.53;27.92;;;;;;;16.76;100.00;101261.41;5060727;28;20055;-81
2022/08/22 01:22:16;;;;;;;68.10;26.88;;;;;;;16.78;100.00;101259.38;5069001;28;20055;-81
2022/08/22 01:25:18;;;;;;;74.75;27.05;;;;;;;16.65;100.00;101257.81;5047059;28;20029;-79
2022/08/22 01:28:06;;;;;;;62.35;23.98;;;;;;;16.66;100.00;101259.56;5077170;28;20032;-79
2022/08/22 01:30:57;;;;;;;64.65;23.48;;;;;;;16.57;100.00;101246.63;5056652;28;20549;-80
2022/08/22 01:33:52;;;;;;;65.53;18.92;;;;;;;16.38;100.00;101253.13;5064108;28;20093;-80
2022/08/22 01:36:54;;;;;;;44.10;17.05;;;;;;;16.35;100.00;101261.69;5070679;28;20373;-79
2022/08/22 01:40:03;;;;;;;40.58;16.60;;;;;;;16.30;100.00;101255.75;5048899;28;20087;-80
2022/08/22 01:42:47;;;;;;;40.72;19.08;;;;;;;16.28;100.00;101252.25;5076934;28;20024;-80
2022/08/22 01:45:40;;;;;;;54.25;18.02;;;;;;;16.30;100.00;101256.63;5076506;28;20085;-80
2022/08/22 01:49:04;;;;;;;51.72;18.38;;;;;;;16.35;100.00;101245.97;5077201;28;20033;-81
2022/08/22 01:51:49;;;;;;;39.60;17.15;;;;;;;16.33;100.00;101264.63;4998059;28;20037;-80
2022/08/22 01:54:48;;;;;;;41.75;16.58;;;;;;;16.46;100.00;101249.56;4981177;28;20602;-80
2022/08/22 01:57:22;;;;;;;35.45;15.63;;;;;;;16.64;100.00;101255.19;5049669;28;20048;-81
2022/08/22 02:00:03;;;;;;;43.33;15.50;;;;;;;16.64;100.00;101253.31;5068519;28;20041;-80
2022/08/22 02:02:56;;;;;;;41.25;15.00;;;;;;;16.64;100.00;101249.66;5059730;28;20040;-80
2022/08/22 02:05:50;;;;;;;45.72;15.73;;;;;;;16.65;100.00;101248.66;5070520;28;20032;-81
2022/08/22 02:08:41;;;;;;;40.22;16.77;;;;;;;16.64;100.00;101250.56;5075215;28;20024;-81
2022/08/22 02:11:09;;;;;;;46.45;17.02;;;;;;;16.76;100.00;101247.56;5043066;28;20484;-81
2022/08/22 02:14:07;;;;;;;47.38;17.48;;;;;;;16.67;100.00;101246.59;5069013;28;20392;-82
2022/08/22 02:16:56;;;;;;;39.33;16.38;;;;;;;16.73;100.00;101262.59;5056226;28;20048;-81
2022/08/22 02:19:31;;;;;;;40.33;16.55;;;;;;;16.62;100.00;101241.53;5072666;28;20067;-80
2022/08/22 02:22:06;;;;;;;47.22;16.30;;;;;;;16.59;100.00;101243.72;5072921;28;20029;-81
2022/08/22 02:24:53;;;;;;;50.00;16.95;;;;;;;16.56;100.00;101249.53;5060919;28;20032;-80
2022/08/22 02:27:34;;;;;;;51.20;16.38;;;;;;;16.49;100.00;101239.09;5075941;28;20028;-80
2022/08/22 02:30:19;;;;;;;37.28;15.82;;;;;;;16.51;100.00;101248.13;5062424;28;20115;-80
2022/08/22 02:33:15;;;;;;;50.92;16.20;;;;;;;16.43;100.00;101244.34;5062019;28;20044;-81
2022/08/22 02:35:53;;;;;;;51.60;16.25;;;;;;;16.28;100.00;101231.03;5063948;28;20397;-80
2022/08/22 02:39:08;;;;;;;46.65;16.65;;;;;;;16.33;100.00;101234.22;5072683;28;20056;-80
2022/08/22 02:41:56;;;;;;;45.15;17.77;;;;;;;16.28;100.00;101232.91;5052456;28;20044;-80
2022/08/22 02:44:41;;;;;;;50.83;17.35;;;;;;;16.21;100.00;101238.16;5059703;28;20086;-81
2022/08/22 02:47:12;;;;;;;44.05;17.67;;;;;;;16.12;100.00;101241.84;5058427;28;20116;-81
2022/08/22 02:50:19;;;;;;;53.45;17.67;;;;;;;16.07;100.00;101235.84;5060162;28;20078;-81
2022/08/22 02:52:54;;;;;;;44.05;17.15;;;;;;;16.01;100.00;101240.09;5058667;28;20031;-81
2022/08/22 02:55:41;;;;;;;40.92;15.85;;;;;;;15.98;100.00;101235.72;5068820;28;20032;-81
2022/08/22 02:58:41;;;;;;;43.65;17.15;;;;;;;15.90;100.00;101234.72;5066422;28;20088;-81
2022/08/22 03:01:34;;;;;;;47.92;18.42;;;;;;;15.82;100.00;101231.81;5049569;28;20047;-80
2022/08/22 03:04:29;;;;;;;45.13;18.85;;;;;;;15.73;100.00;101226.13;5057274;28;20460;-80
2022/08/22 03:07:11;;;;;;;49.90;17.27;;;;;;;15.66;100.00;101222.22;5060994;28;20411;-80
2022/08/22 03:10:20;;;;;;;44.90;17.75;;;;;;;15.69;100.00;101226.56;5069159;28;20113;-80
2022/08/22 03:12:51;;;;;;;48.00;17.40;;;;;;;15.65;100.00;101225.13;5057788;28;20032;-81
2022/08/22 03:15:33;;;;;;;46.38;18.05;;;;;;;15.69;100.00;101224.69;5065068;28;20028;-80
2022/08/22 03:18:15;;;;;;;45.78;17.15;;;;;;;15.71;100.00;101221.75;5058090;28;20120;-80
2022/08/22 03:20:43;;;;;;;41.67;17.27;;;;;;;15.70;100.00;101215.38;5077164;28;20025;-79
2022/08/22 03:23:14;;;;;;;46.67;17.88;;;;;;;15.76;100.00;101208.44;5069209;28;20384;-79
2022/08/22 03:25:57;;;;;;;54.17;18.15;;;;;;;15.82;100.00;101210.59;5066173;28;20040;-80
2022/08/22 03:28:30;;;;;;;54.35;18.45;;;;;;;15.95;100.00;101211.19;5077283;28;20036;-80
2022/08/22 03:31:14;;;;;;;40.17;16.75;;;;;;;16.11;100.00;101221.59;5059971;28;20550;-80
2022/08/22 03:33:44;;;;;;;48.60;18.50;;;;;;;16.05;100.00;101211.13;5070870;28;20399;-80
2022/08/22 03:36:16;;;;;;;52.05;18.92;;;;;;;16.03;100.00;101213.19;5077812;28;20020;-80
2022/08/22 03:39:05;;;;;;;73.75;20.08;;;;;;;16.06;100.00;101209.28;5074329;28;20072;-79
2022/08/22 03:41:43;;;;;;;59.38;18.15;;;;;;;16.11;100.00;101201.41;5067176;28;20029;-80
2022/08/22 03:44:49;;;;;;;60.85;18.02;;;;;;;16.09;100.00;101197.94;5074718;28;20024;-80
2022/08/22 03:48:02;;;;;;;53.10;19.50;;;;;;;15.94;100.00;101197.53;5057078;28;20099;-80
2022/08/22 03:50:50;;;;;;;59.88;20.38;;;;;;;15.99;100.00;101206.22;5058342;28;20036;-80
2022/08/22 03:53:24;;;;;;;60.63;18.30;;;;;;;15.96;100.00;101193.56;5061180;28;20043;-81
2022/08/22 03:55:50;;;;;;;56.80;18.98;;;;;;;15.93;100.00;101191.09;5070489;28;20033;-81
2022/08/22 03:58:27;;;;;;;49.55;19.98;;;;;;;15.85;100.00;101196.50;5040716;28;20379;-79
2022/08/22 04:01:23;;;;;;;54.05;20.33;;;;;;;15.83;100.00;101197.69;5042033;28;20396;-80
2022/08/22 04:04:30;;;;;;;72.07;20.48;;;;;;;15.88;100.00;101204.50;5055534;28;21894;-80
2022/08/22 04:07:31;;;;;;;55.60;20.45;;;;;;;15.74;100.00;101208.56;5062722;28;20048;-81
2022/08/22 04:10:22;;;;;;;62.88;20.25;;;;;;;15.79;100.00;101208.16;5047821;28;20108;-82
2022/08/22 04:13:27;;;;;;;59.55;19.63;;;;;;;15.84;100.00;101205.81;5068827;28;20056;-79
2022/08/22 04:16:30;;;;;;;57.05;19.70;;;;;;;15.99;100.00;101209.84;5065013;28;20076;-81
2022/08/22 04:19:34;;;;;;;51.88;18.63;;;;;;;15.92;100.00;101196.78;5069377;28;20063;-80
2022/08/22 04:22:39;;;;;;;67.13;20.05;;;;;;;15.91;100.00;101204.19;5061640;28;20036;-82
2022/08/22 04:25:09;;;;;;;61.25;21.45;;;;;;;15.94;100.00;101209.44;5069536;28;20033;-81
2022/08/22 04:27:48;;;;;;;60.10;19.77;;;;;;;15.85;100.00;101212.22;5069097;28;20037;-79
2022/08/22 04:30:32;;;;;;;69.78;21.40;;;;;;;15.59;100.00;101198.97;5062228;28;20040;-80
2022/08/22 04:33:07;;;;;;;59.20;20.80;;;;;;;15.66;100.00;101211.19;5067034;28;20671;-80
2022/08/22 04:35:57;;;;;;;73.35;21.35;;;;;;;15.55;100.00;101216.84;5067063;28;20093;-79
2022/08/22 04:38:52;;;;;;;65.63;20.80;;;;;;;15.58;100.00;101222.06;5055450;28;20484;-79
2022/08/22 04:41:48;;;;;;;74.30;23.00;;;;;;;15.58;100.00;101220.19;5052940;28;20039;-80
2022/08/22 04:44:26;;;;;;;74.53;19.73;;;;;;;15.59;100.00;101219.19;5069720;28;20379;-78
2022/08/22 04:47:04;;;;;;;72.32;20.50;;;;;;;15.57;100.00;101223.94;5065334;28;20037;-80
2022/08/22 04:49:37;;;;;;;75.10;21.10;;;;;;;15.67;100.00;101228.59;5071892;28;20059;-78
2022/08/22 04:52:47;;;;;;;63.55;20.33;;;;;;;15.80;100.00;101227.31;5062496;28;20086;-78
2022/08/22 04:55:34;;;;;;;64.65;20.10;;;;;;;15.75;100.00;101224.09;5064533;28;20550;-81
2022/08/22 04:58:29;;;;;;;65.40;21.25;;;;;;;15.59;100.00;101226.56;5077326;28;20056;-79
2022/08/22 05:01:11;;;;;;;62.20;21.67;;;;;;;15.51;100.00;101224.56;5089177;28;20047;-79
2022/08/22 05:04:19;;;;;;;60.88;22.05;;;;;;;15.53;100.00;101228.03;5077892;28;20029;-81
2022/08/22 05:06:57;;;;;;;64.20;23.30;;;;;;;15.43;100.00;101228.03;5048985;28;20044;-79
2022/08/22 05:09:29;;;;;;;64.28;21.48;;;;;;;15.27;100.00;101244.28;5070141;28;20135;-79
2022/08/22 05:12:06;;;;;;;65.70;20.83;;;;;;;15.26;100.00;101239.75;5063751;28;20033;-79
2022/08/22 05:14:40;;;;;;;64.03;20.40;;;;;;;15.28;100.00;101245.13;5047872;28;20042;-79
2022/08/22 05:17:21;;;;;;;62.73;20.50;;;;;;;15.34;100.00;101247.31;5063377;28;20032;-80
2022/08/22 05:19:52;;;;;;;60.42;19.42;;;;;;;15.41;100.00;101242.97;5064050;28;20039;-80
2022/08/22 05:22:28;;;;;;;;;;;;;;;15.44;100.00;101245.44;5069822;28;20025;-80
2022/08/22 05:25:02;;;;;;;54.78;19.15;;;;;;;15.52;100.00;101242.84;5065520;28;19952;-80
2022/08/22 05:27:40;;;;;;;56.28;22.83;;;;;;;15.65;100.00;101244.44;5076586;28;20040;-79
2022/08/22 05:30:34;;;;;;;64.43;21.58;;;;;;;15.74;100.00;101244.44;5065751;28;20020;-79
2022/08/22 05:33:25;;;;;;;56.30;21.33;;;;;;;15.78;100.00;101245.06;5069907;28;20075;-80
2022/08/22 05:36:10;;;;;;;53.80;20.92;;;;;;;15.87;100.00;101243.31;5066388;28;20414;-80
2022/08/22 05:38:57;;;;;;;59.17;21.80;;;;;;;15.83;100.00;101242.72;5059175;28;20040;-79
2022/08/22 05:41:27;;;;;;;60.07;20.50;;;;;;;15.82;100.00;101252.00;5048622;28;20092;-81
2022/08/22 05:43:54;;;;;;;56.35;20.77;;;;;;;15.89;100.00;101244.91;5075674;28;20301;-80
2022/08/22 05:46:22;;;;;;;63.65;21.02;;;;;;;15.92;100.00;101263.06;5049546;28;20033;-82
2022/08/22 05:49:01;;;;;;;50.90;18.85;;;;;;;15.93;100.00;101256.53;5062509;28;20029;-80
2022/08/22 05:51:52;;;;;;;60.10;20.67;;;;;;;16.03;100.00;101251.00;5067044;28;20399;-79
2022/08/22 05:54:26;;;;;;;55.38;20.27;;;;;;;16.03;100.00;101257.38;5068366;28;20031;-81
2022/08/22 05:56:59;;;;;;;49.35;22.00;;;;;;;16.21;100.00;101263.03;5064394;28;20033;-80
2022/08/22 05:59:31;;;;;;;58.97;20.50;;;;;;;16.11;100.00;101257.50;5064266;28;20028;-80
2022/08/22 06:02:20;;;;;;;55.65;20.92;;;;;;;16.12;100.00;101250.13;5066163;28;20094;-79
2022/08/22 06:04:53;;;;;;;52.00;22.25;;;;;;;16.23;100.00;101244.41;5051646;28;20056;-79
2022/08/22 06:07:49;;;;;;;49.15;20.10;;;;;;;16.16;100.00;101260.69;5072985;28;20028;-79
2022/08/22 06:10:41;;;;;;;50.78;22.33;;;;;;;16.22;100.00;101256.50;5062560;28;20036;-79
2022/08/22 06:13:20;;;;;;;51.33;20.27;;;;;;;16.53;100.00;101247.97;5046754;28;20504;-79
2022/08/22 06:15:58;;;;;;;59.17;21.30;;;;;;;16.61;100.00;101255.50;5061535;28;20087;-79
2022/08/22 06:18:35;;;;;;;52.78;21.70;;;;;;;16.61;100.00;101252.72;5070270;28;20369;-79
2022/08/22 06:21:12;;;;;;;60.65;20.80;;;;;;;16.80;100.00;101249.88;5071750;28;20427;-79
2022/08/22 06:24:00;;;;;;;65.95;21.92;;;;;;;16.91;100.00;101254.38;5063383;28;20027;-78
2022/08/22 06:26:35;;;;;;;57.13;21.50;;;;;;;17.15;100.00;101250.16;5067632;28;20025;-79
2022/08/22 06:29:13;;;;;;;70.70;24.48;;;;;;;17.09;100.00;101247.00;5063705;28;20025;-78
2022/08/22 06:31:48;;;;;;;57.25;21.00;;;;;;;17.33;100.00;101252.97;5064789;28;20174;-77
2022/08/22 06:34:35;;;;;;;59.00;23.77;;;;;;;17.41;100.00;101248.41;5044214;28;20064;-76
2022/08/22 06:37:04;;;;;;;53.67;24.13;;;;;;;17.49;100.00;101264.22;5058089;28;20020;-78
2022/08/22 06:39:34;;;;;;;51.88;23.70;;;;;;;17.64;100.00;101259.00;5059521;28;20361;-78
2022/08/22 06:42:17;;;;;;;56.87;23.00;;;;;;;17.63;100.00;101260.06;5055834;28;20594;-78
2022/08/22 06:45:09;;;;;;;62.95;24.40;;;;;;;17.83;100.00;101267.16;5072402;28;20449;-77
2022/08/22 06:47:39;;;;;;;53.80;24.40;;;;;;;17.73;100.00;101260.84;5058265;28;20025;-78
2022/08/22 06:50:17;;;;;;;62.22;23.42;;;;;;;17.87;100.00;101256.66;5081230;28;20020;-78
2022/08/22 06:52:56;;;;;;;59.42;23.80;;;;;;;17.90;100.00;101266.56;5068008;28;20041;-78
2022/08/22 06:55:29;;;;;;;57.90;24.95;;;;;;;17.89;100.00;101274.00;5063697;28;20021;-78
2022/08/22 06:58:03;;;;;;;53.63;22.70;;;;;;;18.03;100.00;101278.09;5068943;28;20036;-78
2022/08/22 07:00:41;;;;;;;49.95;24.48;;;;;;;18.05;100.00;101272.41;5073514;28;20032;-78
2022/08/22 07:03:21;;;;;;;62.90;24.65;;;;;;;18.21;100.00;101267.00;5068092;28;20027;-78
2022/08/22 07:05:54;;;;;;;63.45;26.42;;;;;;;18.15;100.00;101274.06;5067986;28;20455;-78
2022/08/22 07:08:23;;;;;;;64.22;26.88;;;;;;;18.19;100.00;101275.47;5063402;28;20480;-77
2022/08/22 07:11:21;;;;;;;65.05;25.20;;;;;;;18.19;100.00;101286.56;5057864;28;20033;-78
2022/08/22 07:13:59;;;;;;;57.88;24.33;;;;;;;18.28;100.00;101281.06;5058806;28;20037;-78
2022/08/22 07:16:32;;;;;;;49.53;23.27;;;;;;;18.49;100.00;101284.34;5063436;28;20032;-79
2022/08/22 07:19:00;;;;;;;57.30;24.15;;;;;;;18.56;100.00;101279.00;5072925;28;20028;-78
2022/08/22 07:21:41;;;;;;;61.13;25.80;;;;;;;18.44;100.00;101283.97;5069202;28;20040;-77
2022/08/22 07:24:11;;;;;;;58.95;25.77;;;;;;;18.49;100.00;101284.34;5042280;28;20469;-78
2022/08/22 07:27:07;;;;;;;55.05;26.48;;;;;;;18.49;100.00;101287.09;5063769;28;20039;-78
2022/08/22 07:29:49;;;;;;;58.22;25.52;;;;;;;18.53;100.00;101288.53;5058056;28;20032;-79
2022/08/22 07:32:48;;;;;;;58.50;25.38;;;;;;;18.70;100.00;101285.88;5067191;28;20037;-78
2022/08/22 07:35:19;;;;;;;63.70;23.50;;;;;;;18.76;100.00;101287.09;5061710;28;20510;-79
2022/08/22 07:38:16;;;;;;;58.47;23.75;;;;;;;18.95;100.00;101286.03;5065175;28;20044;-78
2022/08/22 07:40:58;;;;;;;63.00;24.15;;;;;;;18.91;100.00;101280.81;5063921;28;20039;-78
2022/08/22 07:43:37;;;;;;;70.07;24.48;;;;;;;19.08;100.00;101289.22;5068744;28;20021;-78
2022/08/22 07:46:25;;;;;;;49.90;23.45;;;;;;;19.19;100.00;101288.06;5064880;28;20033;-78
2022/08/22 07:49:10;;;;;;;65.07;24.20;;;;;;;19.40;100.00;101290.38;5070689;28;20059;-80
2022/08/22 07:51:46;;;;;;;63.78;23.98;;;;;;;19.42;100.00;101291.09;5069207;28;20032;-80
2022/08/22 07:54:26;;;;;;;66.72;23.88;;;;;;;19.46;100.00;101281.34;5067478;28;20025;-80
2022/08/22 07:57:21;;;;;;;52.00;23.77;;;;;;;19.41;100.00;101276.34;5083088;28;20033;-78
2022/08/22 07:59:55;;;;;;;62.08;24.52;;;;;;;19.41;100.00;101278.22;5049032;28;20037;-80
2022/08/22 08:02:23;;;;;;;58.67;24.00;;;;;;;19.49;100.00;101275.47;5068145;28;20036;-79
2022/08/22 08:04:59;;;;;;;48.20;22.55;;;;;;;19.62;100.00;101275.84;5054344;28;20481;-79
2022/08/22 08:07:29;;;;;;;59.45;23.25;;;;;;;19.69;100.00;101275.16;5051093;28;20033;-79
2022/08/22 08:10:05;;;;;;;65.22;24.40;;;;;;;20.08;100.00;101271.75;5055576;28;20029;-79
2022/08/22 08:12:53;;;;;;;66.30;24.07;;;;;;;20.13;100.00;101263.75;5068040;28;20123;-79
2022/08/22 08:15:23;;;;;;;79.82;22.38;;;;;;;20.22;100.00;101264.63;5053141;28;20064;-77
2022/08/22 08:17:59;;;;;;;67.95;24.00;;;;;;;20.38;100.00;101270.16;5022898;28;20035;-80
2022/08/22 08:20:35;;;;;;;47.10;22.23;;;;;;;20.73;100.00;101265.28;5055993;28;20134;-78
2022/08/22 08:23:08;;;;;;;65.22;22.20;;;;;;;21.39;100.00;101268.63;5056438;28;20032;-78
2022/08/22 08:25:59;;;;;;;58.90;23.08;;;;;;;21.86;100.00;101269.59;5070191;28;20120;-78
2022/08/22 08:28:33;;;;;;;54.45;21.05;;;;;;;21.53;100.00;101263.34;5064345;28;20025;-78
2022/08/22 08:31:30;;;;;;;49.60;20.02;;;;;;;21.50;100.00;101264.59;5039352;28;20465;-78
2022/08/22 08:34:19;;;;;;;50.92;21.38;;;;;;;21.05;100.00;101258.72;5057239;28;20120;-79
2022/08/22 08:37:00;;;;;;;49.80;20.13;;;;;;;21.27;100.00;101257.03;5057123;28;20029;-78
2022/08/22 08:39:38;;;;;;;58.40;19.95;;;;;;;21.07;100.00;101252.94;5062446;28;20029;-78
2022/08/22 08:42:21;;;;;;;51.67;20.88;;;;;;;21.00;100.00;101251.94;5061060;28;20383;-77
2022/08/22 08:45:11;;;;;;;58.25;20.95;;;;;;;21.12;100.00;101256.09;5069032;28;20039;-78
2022/08/22 08:48:12;;;;;;;53.22;19.92;;;;;;;21.17;100.00;101255.50;5057366;28;20036;-78
2022/08/22 08:50:53;;;;;;;64.07;21.27;;;;;;;21.18;100.00;101249.75;5064887;28;20029;-77
2022/08/22 08:53:42;;;;;;;57.67;22.58;;;;;;;21.10;100.00;101253.47;5053778;28;20037;-77
2022/08/22 08:56:34;;;;;;;58.70;21.60;;;;;;;21.37;100.00;101259.59;5066667;28;20042;-78
2022/08/22 08:59:35;;;;;;;64.88;23.77;;;;;;;21.48;100.00;101250.84;5071561;28;20051;-78
2022/08/22 09:02:24;;;;;;;57.45;21.10;;;;;;;21.58;100.00;101253.41;5058925;28;20434;-78
2022/08/22 09:05:11;;;;;;;53.55;22.15;;;;;;;21.69;100.00;101248.47;5053784;28;20080;-78
2022/08/22 09:07:45;;;;;;;58.30;23.25;;;;;;;21.86;100.00;101250.06;5069778;28;20028;-77
2022/08/22 09:10:33;;;;;;;61.95;24.10;;;;;;;21.96;100.00;101256.25;5070232;28;20036;-79
2022/08/22 09:13:30;;;;;;;69.60;22.52;;;;;;;22.48;100.00;101259.28;5067540;28;20380;-79
2022/08/22 09:16:24;;;;;;;57.92;19.33;;;;;;;22.49;100.00;101253.53;5070526;28;20033;-77
2022/08/22 09:18:59;;;;;;;68.70;20.58;;;;;;;22.70;100.00;101252.78;5061680;28;20078;-77
2022/08/22 09:21:48;;;;;;;54.50;20.13;;;;;;;23.38;100.00;101262.97;5072387;28;20040;-79
2022/08/22 09:24:36;;;;;;;52.35;17.42;;;;;;;23.92;100.00;101270.06;5060252;28;20017;-78
2022/08/22 09:27:48;;;;;;;59.60;19.27;;;;;;;24.17;100.00;101267.69;5073693;28;20032;-78
2022/08/22 09:30:19;;;;;;;55.15;18.70;;;;;;;24.23;100.00;101258.50;5026846;28;20040;-77
2022/08/22 09:33:04;;;;;;;54.22;19.27;;;;;;;23.79;100.00;101249.25;5068206;28;20039;-77
2022/08/22 09:35:55;;;;;;;60.17;19.60;;;;;;;24.21;100.00;101255.03;5045160;28;20049;-76
2022/08/22 09:38:47;;;;;;;53.53;17.33;;;;;;;23.88;100.00;101249.16;5044889;28;20037;-77
2022/08/22 09:41:13;;;;;;;71.15;19.63;;;;;;;23.73;100.00;101252.84;5085668;28;20035;-77
2022/08/22 09:44:20;;;;;;;58.17;19.20;;;;;;;24.15;100.00;101251.13;5068983;28;20036;-77
2022/08/22 09:47:07;;;;;;;67.50;20.90;;;;;;;24.22;100.00;101251.19;5063007;28;20555;-76
2022/08/22 09:50:19;;;;;;;57.85;17.25;;;;;;;24.33;100.00;101250.59;5072577;28;20032;-79
2022/08/22 09:53:03;;;;;;;55.30;18.70;;;;;;;23.98;100.00;101233.75;5065353;28;20028;-80
2022/08/22 09:55:54;;;;;;;59.97;17.05;;;;;;;24.20;100.00;101237.41;5045734;28;20049;-79
2022/08/22 09:58:43;;;;;;;63.57;19.47;;;;;;;24.22;100.00;101238.06;5047510;28;20447;-79
2022/08/22 10:01:24;;;;;;;62.47;15.05;;;;;;;24.20;100.00;101240.19;5051592;28;20298;-79
2022/08/22 10:04:47;;;;;;;53.38;16.83;;;;;;;24.14;100.00;101237.34;5077696;28;20029;-81
2022/08/22 10:07:36;;;;;;;63.92;14.93;;;;;;;24.29;100.00;101229.72;4993310;28;20429;-80
2022/08/22 10:10:19;;;;;;;60.20;15.98;;;;;;;24.31;100.00;101224.75;5058231;28;20060;-80
2022/08/22 10:13:17;;;;;;;53.67;14.75;;;;;;;24.25;100.00;101227.50;5059604;28;20079;-79
2022/08/22 10:16:23;;;;;;;54.78;13.88;;;;;;;24.28;100.00;101216.78;5057913;28;20048;-80
2022/08/22 10:19:10;;;;;;;41.28;10.70;;;;;;;24.29;100.00;101218.50;5070601;28;20044;-80
2022/08/22 10:22:04;;;;;;;40.42;9.63;;;;;;;24.43;96.78;101215.81;5069360;28;20017;-79
2022/08/22 10:24:58;;;;;;;42.40;9.02;;;;;;;24.60;99.43;101211.66;5066792;28;20028;-81
2022/08/22 10:27:45;;;;;;;43.67;11.00;;;;;;;24.04;100.00;101190.13;5069586;28;20040;-80
2022/08/22 10:31:09;;;;;;;27.67;8.77;;;;;;;24.43;98.92;101204.59;5075616;28;20043;-79
2022/08/22 10:33:44;;;;;;;24.52;5.75;;;;;;;24.52;89.04;101211.78;5015175;28;20053;-79
2022/08/22 10:36:22;;;;;;;31.40;5.60;;;;;;;24.70;81.81;101194.50;5045938;28;20041;-80
2022/08/22 10:38:58;;;;;;;27.67;6.18;;;;;;;24.71;82.19;101205.47;5057132;28;20396;-79
2022/08/22 10:41:32;;;;;;;22.77;4.85;;;;;;;24.61;76.85;101192.91;5080877;28;20357;-79
2022/08/22 10:44:21;;;;;;;22.02;4.55;;;;;;;25.12;78.06;101199.00;5068865;28;20499;-79
2022/08/22 10:47:08;;;;;;;28.45;6.03;;;;;;;24.72;82.58;101197.94;5076024;28;20033;-79
2022/08/22 10:49:56;;;;;;;32.70;5.75;;;;;;;25.10;80.25;101189.94;5059766;28;20040;-79
2022/08/22 10:52:29;;;;;;;31.83;5.70;;;;;;;24.68;83.12;101191.91;5067305;28;20037;-79
2022/08/22 10:55:16;;;;;;;29.10;5.00;;;;;;;25.16;80.61;101188.22;5065006;28;20062;-80
2022/08/22 10:57:47;;;;;;;32.40;4.80;;;;;;;25.54;74.29;101195.28;5064661;28;20128;-79
2022/08/22 11:00:49;;;;;;;33.55;5.68;;;;;;;26.00;66.59;101191.69;5058315;28;20025;-80
2022/08/22 11:03:27;;;;;;;32.25;5.38;;;;;;;25.98;74.23;101191.91;5026775;28;20537;-80
2022/08/22 11:06:00;;;;;;;25.85;5.00;;;;;;;26.18;69.00;101191.88;5061987;28;20028;-80
2022/08/22 11:08:49;;;;;;;26.63;5.05;;;;;;;25.98;72.94;101189.09;5073837;28;20096;-80
2022/08/22 11:11:44;;;;;;;29.38;5.50;;;;;;;26.26;67.69;101185.19;5063980;28;20029;-81
2022/08/22 11:14:45;;;;;;;23.90;5.40;;;;;;;26.73;67.17;101187.94;5062435;28;20450;-83
2022/08/22 11:17:19;;;;;;;27.70;5.53;;;;;;;26.73;66.79;101177.56;5062809;28;20059;-81
2022/08/22 11:20:38;;;;;;;25.67;4.72;;;;;;;26.80;63.86;101182.31;5075386;28;20024;-81
2022/08/22 11:23:43;;;;;;;41.72;5.15;;;;;;;25.76;67.54;101177.19;5054711;28;20408;-80
2022/08/22 11:26:38;;;;;;;24.40;4.70;;;;;;;26.67;65.19;101178.44;5055447;28;20063;-81
2022/08/22 11:29:48;;;;;;;26.77;3.95;;;;;;;26.47;66.98;101174.81;5068180;28;20119;-80
2022/08/22 11:32:36;;;;;;;20.13;4.00;;;;;;;26.26;63.43;101171.16;5077717;28;20037;-81
2022/08/22 11:35:19;;;;;;;15.15;4.03;;;;;;;25.98;66.00;101165.78;5057933;28;20491;-79
2022/08/22 11:38:21;;;;;;;20.70;5.18;;;;;;;25.85;65.72;101169.41;5072403;28;20400;-79
2022/08/22 11:41:04;;;;;;;18.80;3.97;;;;;;;26.54;64.01;101167.22;5061301;28;20094;-81
2022/08/22 11:43:48;;;;;;;21.08;3.85;;;;;;;26.59;61.57;101168.25;5065805;28;20096;-83
2022/08/22 11:46:17;;;;;;;20.00;4.13;;;;;;;25.94;62.51;101165.31;5064565;28;20033;-84
2022/08/22 11:49:21;;;;;;;25.27;4.18;;;;;;;25.85;65.25;101164.66;5057629;28;20028;-83
2022/08/22 11:52:01;;;;;;;21.25;3.95;;;;;;;25.85;64.62;101159.03;5041294;28;20043;-83
2022/08/22 11:55:04;;;;;;;24.05;5.00;;;;;;;25.62;68.10;101165.06;5077003;28;20112;-83
2022/08/22 11:57:39;;;;;;;14.75;3.75;;;;;;;26.03;67.27;101161.22;5075747;28;20055;-83
2022/08/22 12:00:43;;;;;;;20.75;4.70;;;;;;;26.07;66.12;101160.81;5059216;28;20029;-83
2022/08/22 12:03:32;;;;;;;26.92;4.03;;;;;;;26.06;63.63;101156.28;5063050;28;20072;-84
2022/08/22 12:06:35;;;;;;;21.05;3.50;;;;;;;25.61;63.39;101151.25;5056691;28;20021;-84
2022/08/22 12:09:34;;;;;;;19.83;3.85;;;;;;;25.79;63.18;101154.31;5063478;28;20029;-82
2022/08/22 12:12:30;;;;;;;17.52;3.30;;;;;;;25.99;62.48;101153.47;5074966;28;20024;-82
2022/08/22 12:15:40;;;;;;;16.48;3.40;;;;;;;26.21;59.77;101152.16;5056801;28;20114;-83
2022/08/22 12:18:17;;;;;;;15.27;2.83;;;;;;;26.39;60.04;101151.47;5026640;28;20053;-82
2022/08/22 12:21:17;;;;;;;32.33;3.38;;;;;;;26.10;62.14;101140.72;5058235;28;20033;-82
2022/08/22 12:24:17;;;;;;;15.30;2.78;;;;;;;26.36;61.63;101140.69;5059357;28;20029;-83
2022/08/22 12:26:56;;;;;;;17.42;3.00;;;;;;;26.10;61.56;101143.53;5075390;28;20063;-82
2022/08/22 12:29:55;;;;;;;15.13;3.20;;;;;;;26.30;61.54;101151.91;5057353;28;20044;-81